This is the latest recevied weather packets stored in our database for station/object KQ4UPF. If no packets are shown the sender has not sent any weather packets the latest 10 day(s).
| Time | Temp. | Humidity | Pressure | Rain* | Wind** | Luminosity | Snow |
|---|---|---|---|---|---|---|---|
| 1778076656 | 19.44° C | 92% | 1014.2 hPa | 4.32 mm | - | 39 W/m² | - |
| 1778076353 | 19.44° C | 92% | 1013.5 hPa | 4.83 mm | - | 42 W/m² | - |
| 1778076050 | 19.44° C | 92% | 1014.5 hPa | 3.56 mm | - | 31 W/m² | - |
| 1778075747 | 19.44° C | 91% | 1015.3 hPa | 3.05 mm | - | 6 W/m² | - |
| 1778075443 | 19.44° C | 90% | 1015.4 hPa | 1.27 mm | - | 7 W/m² | - |
| 1778075139 | 20° C | 88% | 1014.7 hPa | 0 mm | - | 20 W/m² | - |
| 1778074835 | 20° C | 87% | 1014.7 hPa | 0 mm | - | 9 W/m² | - |
| 1778074533 | 20° C | 87% | 1014.6 hPa | 0 mm | - | 22 W/m² | - |
| 1778074230 | 20° C | 86% | 1014.6 hPa | 0 mm | - | 16 W/m² | - |
| 1778073927 | 20° C | 86% | 1013.9 hPa | 0 mm | - | 23 W/m² | - |
| 1778073624 | 20.56° C | 85% | 1014.1 hPa | 0 mm | - | 31 W/m² | - |
| 1778073321 | 20.56° C | 84% | 1014.1 hPa | 0 mm | - | 15 W/m² | - |
| 1778073017 | 20.56° C | 84% | 1014.2 hPa | 0 mm | - | 27 W/m² | - |
| 1778072714 | 20.56° C | 83% | 1014.3 hPa | 0 mm | - | 21 W/m² | - |
| 1778072412 | 20.56° C | 83% | 1014.3 hPa | 0 mm | - | 15 W/m² | - |
| 1778072110 | 20.56° C | 82% | 1014.2 hPa | 0 mm | - | 14 W/m² | - |
| 1778071808 | 20.56° C | 82% | 1014.2 hPa | 0 mm | - | 13 W/m² | - |
| 1778071505 | 20.56° C | 83% | 1014.1 hPa | 0 mm | - | 18 W/m² | - |
| 1778071203 | 20.56° C | 82% | 1014 hPa | 0 mm | - | 13 W/m² | - |
| 1778070901 | 20.56° C | 81% | 1013.8 hPa | 0 mm | - | 20 W/m² | - |
| 1778070598 | 20.56° C | 81% | 1013.9 hPa | 0 mm | - | 10 W/m² | - |
| 1778070295 | 20.56° C | 81% | 1013.4 hPa | 0 mm | - | 15 W/m² | - |
| 1778069993 | 20.56° C | 81% | 1013.3 hPa | 0 mm | - | 14 W/m² | - |
| 1778069690 | 20.56° C | 80% | 1013.2 hPa | 0 mm | - | 9 W/m² | - |
| 1778069386 | 20.56° C | 80% | 1013.6 hPa | 0 mm | - | 8 W/m² | - |
* Rain latest hour (hover to see other rain measurements)
** Current wind speed in m/s (hover to see current wind gust speed)